Time;durP1;ratioP1;P1;durP2;ratioP2;P2;SDS_P1;SDS_P2;PMS_P1;PMS_P2;Temp;Humidity;BMP_temperature;BMP_pressure;BME280_temperature;BME280_humidity;BME280_pressure;Samples;Min_cycle;Max_cycle;Signal;HPM_P1;HPM_P2
2023/09/07 00:01:48;;;;;;;3.13;2.83;;;14.00;99.90;;;;;;4985774;28;20041;-59
2023/09/07 00:04:14;;;;;;;2.20;1.30;;;13.90;99.90;;;;;;4990337;28;20045;-57
2023/09/07 00:06:43;;;;;;;2.65;2.15;;;14.00;99.90;;;;;;4994637;28;20033;-58
2023/09/07 00:09:11;;;;;;;2.00;1.58;;;13.90;99.90;;;;;;4989636;28;20172;-57
2023/09/07 00:11:37;;;;;;;2.35;1.92;;;13.90;99.90;;;;;;4980803;28;20033;-58
2023/09/07 00:14:02;;;;;;;1.88;1.35;;;13.90;99.90;;;;;;4986773;28;20026;-58
2023/09/07 00:16:30;;;;;;;3.22;1.50;;;13.90;99.90;;;;;;4980961;28;20031;-56
2023/09/07 00:18:56;;;;;;;2.97;2.08;;;13.90;99.90;;;;;;4975651;28;20046;-57
2023/09/07 00:21:22;;;;;;;2.80;2.33;;;13.90;99.90;;;;;;4991051;28;20034;-59
2023/09/07 00:23:47;;;;;;;3.33;1.70;;;13.90;99.90;;;;;;4995277;28;20031;-57
2023/09/07 00:26:13;;;;;;;1.85;1.58;;;13.80;99.90;;;;;;4991119;28;20877;-58
2023/09/07 00:28:38;;;;;;;4.65;1.88;;;13.80;99.90;;;;;;4991525;28;20086;-59
2023/09/07 00:31:04;;;;;;;2.60;1.73;;;13.80;99.90;;;;;;4989309;28;20110;-59
2023/09/07 00:33:30;;;;;;;2.28;1.70;;;13.70;99.90;;;;;;5006330;28;20150;-57
2023/09/07 00:35:55;;;;;;;2.53;1.50;;;13.70;99.90;;;;;;4990141;28;20022;-59
2023/09/07 00:38:21;;;;;;;2.47;1.63;;;13.70;99.90;;;;;;4997532;28;20580;-57
2023/09/07 00:40:46;;;;;;;3.40;1.98;;;13.70;99.90;;;;;;4994279;28;20065;-58
2023/09/07 00:43:12;;;;;;;1.58;1.48;;;13.60;99.90;;;;;;4988073;28;20390;-59
2023/09/07 00:45:39;;;;;;;2.25;1.70;;;13.60;99.90;;;;;;4980181;28;20049;-56
2023/09/07 00:48:05;;;;;;;340.58;124.35;;;13.60;99.90;;;;;;4980356;28;20121;-58
2023/09/07 00:50:31;;;;;;;1999.90;999.90;;;13.60;99.90;;;;;;4987896;28;20046;-58
2023/09/07 00:52:59;;;;;;;6.95;5.25;;;13.50;99.90;;;;;;4996266;28;20397;-58
2023/09/07 00:55:26;;;;;;;5.80;5.30;;;13.40;99.90;;;;;;4992301;28;20069;-58
2023/09/07 00:57:51;;;;;;;6.47;5.88;;;13.40;99.90;;;;;;4982545;28;20133;-59
2023/09/07 01:00:17;;;;;;;5.80;4.82;;;13.30;99.90;;;;;;4996256;28;20542;-56
2023/09/07 01:02:44;;;;;;;145.82;57.17;;;13.20;99.90;;;;;;4983568;28;20129;-58
2023/09/07 01:05:11;;;;;;;579.83;225.82;;;13.20;99.90;;;;;;4984163;28;20061;-56
2023/09/07 01:07:46;;;;;;;4.10;3.80;;;13.10;99.90;;;;;;4983815;28;20033;-59
2023/09/07 01:10:13;;;;;;;5.03;4.57;;;13.10;99.90;;;;;;4984551;28;20105;-58
2023/09/07 01:12:39;;;;;;;4.80;4.28;;;13.00;99.90;;;;;;4987638;28;20105;-57
2023/09/07 01:15:06;;;;;;;4.55;4.15;;;13.00;99.90;;;;;;4988183;28;20030;-59
2023/09/07 01:17:33;;;;;;;4.93;4.53;;;12.90;99.90;;;;;;4993983;28;20031;-59
2023/09/07 01:20:06;;;;;;;4.28;3.42;;;12.90;99.90;;;;;;4995231;28;20584;-59
2023/09/07 01:22:31;;;;;;;4.35;3.95;;;12.80;99.90;;;;;;4990936;28;20096;-59
2023/09/07 01:24:58;;;;;;;5.32;4.40;;;12.80;99.90;;;;;;4990035;28;20033;-56
2023/09/07 01:27:24;;;;;;;4.90;4.50;;;12.80;99.90;;;;;;4989867;28;20097;-58
2023/09/07 01:29:51;;;;;;;5.10;4.55;;;12.80;99.90;;;;;;4986307;28;20102;-58
2023/09/07 01:32:16;;;;;;;6.07;4.93;;;12.70;99.90;;;;;;4995343;28;20030;-59
2023/09/07 01:34:42;;;;;;;5.40;5.00;;;12.70;99.90;;;;;;4998199;28;20366;-59
2023/09/07 01:37:08;;;;;;;5.63;5.10;;;12.70;99.90;;;;;;4988266;28;20612;-58
2023/09/07 01:39:33;;;;;;;5.28;4.78;;;12.60;99.90;;;;;;4989290;28;20095;-57
2023/09/07 01:41:59;;;;;;;5.00;4.70;;;12.60;99.90;;;;;;4991413;28;20022;-56
2023/09/07 01:44:26;;;;;;;4.15;3.85;;;12.60;99.90;;;;;;4998251;28;20054;-57
2023/09/07 01:46:52;;;;;;;4.93;4.50;;;12.60;99.90;;;;;;4999207;28;20034;-56
2023/09/07 01:49:18;;;;;;;4.50;4.20;;;12.50;99.90;;;;;;4991789;28;20046;-57
2023/09/07 01:51:43;;;;;;;4.75;4.22;;;12.60;99.90;;;;;;4994722;28;20096;-58
2023/09/07 01:54:09;;;;;;;4.50;4.10;;;12.50;99.90;;;;;;4992070;28;20019;-57
2023/09/07 01:56:35;;;;;;;4.93;4.55;;;12.50;99.90;;;;;;4994489;28;20034;-58
2023/09/07 01:59:01;;;;;;;5.10;4.70;;;12.50;99.90;;;;;;4996607;28;20084;-59
2023/09/07 02:01:31;;;;;;;5.63;5.13;;;12.50;99.90;;;;;;4996128;28;20030;-59
2023/09/07 02:03:57;;;;;;;5.40;5.00;;;12.40;99.90;;;;;;4976465;28;20093;-58
2023/09/07 02:06:23;;;;;;;5.43;5.00;;;12.40;99.90;;;;;;4985547;28;20257;-59
2023/09/07 02:08:49;;;;;;;6.20;5.70;;;12.40;99.90;;;;;;4994410;28;20069;-59
2023/09/07 02:11:14;;;;;;;5.50;5.10;;;12.40;99.90;;;;;;4990720;28;20037;-59
2023/09/07 02:13:46;;;;;;;5.80;5.30;;;12.40;99.90;;;;;;4988848;28;20819;-60
2023/09/07 02:16:11;;;;;;;;;;;12.40;99.90;;;;;;4985879;28;20026;-59
2023/09/07 02:18:43;;;;;;;5.53;4.50;;;12.40;99.90;;;;;;4990394;28;19968;-57
2023/09/07 02:21:09;;;;;;;7.95;5.15;;;12.40;99.90;;;;;;4981720;28;20037;-60
2023/09/07 02:23:37;;;;;;;4.80;4.40;;;12.40;99.90;;;;;;4987578;28;20045;-58
2023/09/07 02:26:03;;;;;;;5.88;5.38;;;12.40;99.90;;;;;;4988706;28;20053;-56
2023/09/07 02:28:29;;;;;;;5.95;5.38;;;12.40;99.90;;;;;;4989723;28;20701;-58
2023/09/07 02:31:01;;;;;;;6.32;5.82;;;12.40;99.90;;;;;;4988066;28;20027;-59
2023/09/07 02:33:28;;;;;;;7.65;5.68;;;12.40;99.90;;;;;;4985649;28;20051;-58
2023/09/07 02:35:54;;;;;;;5.57;5.00;;;12.40;99.90;;;;;;4988752;28;20057;-57
2023/09/07 02:38:19;;;;;;;5.68;5.20;;;12.40;99.90;;;;;;4995531;28;20447;-60
2023/09/07 02:40:46;;;;;;;5.18;4.78;;;12.30;99.90;;;;;;4991468;28;20774;-59
2023/09/07 02:43:12;;;;;;;4.72;4.32;;;12.30;99.90;;;;;;4988312;28;20030;-58
2023/09/07 02:45:38;;;;;;;4.72;4.30;;;12.30;99.90;;;;;;4991696;28;20379;-60
2023/09/07 02:48:05;;;;;;;3.72;3.05;;;12.20;99.90;;;;;;4992775;28;20089;-58
2023/09/07 02:50:34;;;;;;;4.05;3.67;;;12.10;99.90;;;;;;4995725;28;20070;-59
2023/09/07 02:53:00;;;;;;;3.33;3.13;;;12.10;99.90;;;;;;4993612;28;20030;-58
2023/09/07 02:55:26;;;;;;;3.20;2.90;;;12.00;99.90;;;;;;4992070;28;20034;-59
2023/09/07 02:57:53;;;;;;;3.67;3.40;;;11.90;99.90;;;;;;4996215;28;20026;-59
2023/09/07 03:00:19;;;;;;;4.50;4.05;;;11.90;99.90;;;;;;4992864;28;20014;-59
2023/09/07 03:02:45;;;;;;;5.35;4.95;;;11.80;99.90;;;;;;4988939;28;20581;-59
2023/09/07 03:05:10;;;;;;;4.82;4.38;;;11.80;99.90;;;;;;4984076;28;20023;-59
2023/09/07 03:07:36;;;;;;;5.28;4.88;;;11.70;99.90;;;;;;4985053;28;20044;-59
2023/09/07 03:10:02;;;;;;;4.03;3.72;;;11.70;99.90;;;;;;5002263;28;20022;-59
2023/09/07 03:12:28;;;;;;;4.38;4.07;;;11.60;99.90;;;;;;4995790;28;20027;-59
2023/09/07 03:14:54;;;;;;;2.67;2.30;;;11.60;99.90;;;;;;4985608;28;20350;-59
2023/09/07 03:17:22;;;;;;;1.70;1.60;;;11.60;99.90;;;;;;4984531;28;20182;-60
2023/09/07 03:19:48;;;;;;;1.77;1.65;;;11.50;99.90;;;;;;4986348;28;20027;-58
2023/09/07 03:22:14;;;;;;;1.60;1.50;;;11.50;99.90;;;;;;4976951;28;20057;-59
2023/09/07 03:24:40;;;;;;;1.58;1.48;;;11.40;99.90;;;;;;4994093;28;20378;-59
2023/09/07 03:27:06;;;;;;;1.45;1.35;;;11.40;99.90;;;;;;4997446;28;20022;-58
2023/09/07 03:29:35;;;;;;;2.38;2.17;;;11.30;99.90;;;;;;4993821;28;20030;-59
2023/09/07 03:32:01;;;;;;;2.20;2.00;;;11.30;99.90;;;;;;4997211;28;20030;-59
2023/09/07 03:34:27;;;;;;;2.30;2.10;;;11.20;99.90;;;;;;4987100;28;20502;-58
2023/09/07 03:36:52;;;;;;;9.95;2.78;;;11.20;99.90;;;;;;4985130;28;20027;-60
2023/09/07 03:39:24;;;;;;;3.08;2.50;;;11.20;99.90;;;;;;4980528;28;20076;-59
2023/09/07 03:41:50;;;;;;;16.15;2.65;;;11.20;99.90;;;;;;4990755;28;20046;-58
2023/09/07 03:44:15;;;;;;;2.78;1.77;;;11.10;99.90;;;;;;4980728;28;20447;-59
2023/09/07 03:46:41;;;;;;;2.45;2.25;;;11.10;99.90;;;;;;4992520;28;20038;-60
2023/09/07 03:49:07;;;;;;;2.08;1.85;;;11.00;99.90;;;;;;4994120;28;20385;-59
2023/09/07 03:51:33;;;;;;;3.05;2.85;;;11.00;99.90;;;;;;4992121;28;20018;-58
2023/09/07 03:53:59;;;;;;;3.45;3.15;;;11.00;99.90;;;;;;4994688;28;20025;-58
2023/09/07 03:56:25;;;;;;;4.13;3.72;;;11.10;99.90;;;;;;4986893;28;20034;-58
2023/09/07 03:58:50;;;;;;;3.95;3.65;;;11.10;99.90;;;;;;4985014;28;20033;-57
2023/09/07 04:01:16;;;;;;;4.40;4.00;;;11.10;99.90;;;;;;4988940;28;20346;-58
2023/09/07 04:03:41;;;;;;;4.40;4.00;;;11.20;99.90;;;;;;4991967;28;20025;-58
2023/09/07 04:06:07;;;;;;;4.60;4.25;;;11.20;99.90;;;;;;4985573;28;20034;-58
2023/09/07 04:08:33;;;;;;;9.93;5.97;;;11.20;99.90;;;;;;4989849;28;20117;-58
2023/09/07 04:11:02;;;;;;;5.68;5.13;;;11.20;99.90;;;;;;4983405;28;20035;-59
2023/09/07 04:13:28;;;;;;;4.40;4.00;;;11.20;99.90;;;;;;4996390;28;20030;-59
2023/09/07 04:15:54;;;;;;;4.93;4.43;;;11.20;99.90;;;;;;4990323;28;20027;-58
2023/09/07 04:18:19;;;;;;;4.20;3.80;;;11.20;99.90;;;;;;4989134;28;20033;-59
2023/09/07 04:20:45;;;;;;;5.05;4.65;;;11.20;99.90;;;;;;4990536;28;20760;-60
2023/09/07 04:23:11;;;;;;;5.85;5.22;;;11.20;99.90;;;;;;4989705;28;20586;-60
2023/09/07 04:25:39;;;;;;;6.03;5.53;;;11.20;99.90;;;;;;4986018;28;20035;-58
2023/09/07 04:28:05;;;;;;;8.40;5.65;;;11.20;99.90;;;;;;4987432;28;20045;-62
2023/09/07 04:30:31;;;;;;;4.57;4.18;;;11.20;99.90;;;;;;4981096;28;20030;-59
2023/09/07 04:32:57;;;;;;;4.75;4.03;;;11.10;99.90;;;;;;4981037;28;20031;-59
2023/09/07 04:35:30;;;;;;;4.57;4.15;;;11.10;99.90;;;;;;4991516;28;20034;-59
2023/09/07 04:37:56;;;;;;;4.30;3.92;;;11.10;99.90;;;;;;4992165;28;20038;-59
2023/09/07 04:40:22;;;;;;;3.92;3.63;;;11.10;99.90;;;;;;4999729;28;20371;-59
2023/09/07 04:42:48;;;;;;;3.33;2.97;;;11.00;99.90;;;;;;4999135;28;20030;-59
2023/09/07 04:45:14;;;;;;;3.20;2.90;;;11.00;99.90;;;;;;4982575;28;20183;-59
2023/09/07 04:47:39;;;;;;;4.88;4.38;;;10.90;99.90;;;;;;4976998;28;20114;-59
2023/09/07 04:50:06;;;;;;;4.20;3.72;;;10.90;99.90;;;;;;4982712;28;20875;-60
2023/09/07 04:52:32;;;;;;;3.78;3.47;;;10.90;99.90;;;;;;4983249;28;20030;-59
2023/09/07 04:54:57;;;;;;;5.10;3.80;;;10.90;99.90;;;;;;4993489;28;20041;-58
2023/09/07 04:57:23;;;;;;;3.05;2.85;;;10.90;99.90;;;;;;4993668;28;20019;-59
2023/09/07 04:59:49;;;;;;;3.92;3.63;;;10.80;99.90;;;;;;4994928;28;20022;-59
2023/09/07 05:02:14;;;;;;;2.65;2.45;;;10.80;99.90;;;;;;4992358;28;20070;-59
2023/09/07 05:04:40;;;;;;;2.97;2.10;;;10.70;99.90;;;;;;4982097;28;20286;-59
2023/09/07 05:07:05;;;;;;;2.45;2.17;;;10.70;99.90;;;;;;4974755;28;20101;-58
2023/09/07 05:09:31;;;;;;;2.78;1.80;;;10.60;99.90;;;;;;4980054;28;20467;-59
2023/09/07 05:11:57;;;;;;;1.90;1.80;;;10.60;99.90;;;;;;4990791;28;20029;-59
2023/09/07 05:14:26;;;;;;;2.22;2.03;;;10.50;99.90;;;;;;4994032;28;20548;-59
2023/09/07 05:16:52;;;;;;;2.40;1.95;;;10.50;99.90;;;;;;4993942;28;20113;-59
2023/09/07 05:19:18;;;;;;;300.92;56.55;;;10.40;99.90;;;;;;4995166;28;20038;-59
2023/09/07 05:21:43;;;;;;;2.40;2.20;;;10.40;99.90;;;;;;4991732;28;20774;-59
2023/09/07 05:24:09;;;;;;;1999.90;999.90;;;10.40;99.90;;;;;;4987096;28;20178;-58
2023/09/07 05:26:35;;;;;;;1153.03;138.07;;;10.40;99.90;;;;;;4986748;28;20034;-59
2023/09/07 05:29:00;;;;;;;345.63;94.93;;;10.40;99.90;;;;;;4979877;28;20435;-58
2023/09/07 05:31:26;;;;;;;2.47;1.63;;;10.40;99.90;;;;;;4978396;28;20038;-56
2023/09/07 05:33:52;;;;;;;3.03;2.10;;;10.50;99.90;;;;;;4983753;28;20090;-58
2023/09/07 05:36:18;;;;;;;4.53;2.40;;;10.50;99.90;;;;;;4980447;28;20023;-58
2023/09/07 05:38:44;;;;;;;4.25;3.45;;;10.60;99.90;;;;;;4955447;28;20050;-59
2023/09/07 05:41:09;;;;;;;389.02;51.15;;;10.60;99.90;;;;;;4978651;28;20026;-59
2023/09/07 05:43:35;;;;;;;1999.90;999.90;;;10.60;99.90;;;;;;4981825;28;20038;-59
2023/09/07 05:46:01;;;;;;;10.35;9.38;;;10.60;99.90;;;;;;4986528;28;20027;-59
2023/09/07 05:48:27;;;;;;;1999.90;999.90;;;10.70;99.90;;;;;;4990046;28;20045;-57
2023/09/07 05:50:52;;;;;;;1999.90;999.90;;;10.70;99.90;;;;;;4995798;28;20105;-58
2023/09/07 05:53:21;;;;;;;3.00;2.30;;;10.80;99.90;;;;;;4998639;28;20038;-59
2023/09/07 05:55:47;;;;;;;1.42;1.25;;;10.90;99.90;;;;;;4993116;28;20031;-59
2023/09/07 05:58:13;;;;;;;7.00;6.60;;;11.00;99.90;;;;;;4996356;28;20042;-61
2023/09/07 06:00:39;;;;;;;1.67;1.55;;;11.20;99.90;;;;;;4990391;28;21029;-58
2023/09/07 06:03:06;;;;;;;2.45;1.30;;;11.20;99.90;;;;;;4995963;28;20027;-59
2023/09/07 06:05:33;;;;;;;6.80;1.23;;;11.30;99.90;;;;;;4993507;28;20031;-59
2023/09/07 06:07:59;;;;;;;250.57;103.18;;;11.40;99.90;;;;;;4984857;28;20494;-58
2023/09/07 06:10:27;;;;;;;202.10;26.02;;;11.50;99.90;;;;;;4984170;28;20066;-58
2023/09/07 06:12:53;;;;;;;4.28;3.58;;;11.70;99.90;;;;;;4984285;28;20022;-59
2023/09/07 06:15:19;;;;;;;8.52;5.50;;;11.70;99.90;;;;;;4987276;28;20026;-59
2023/09/07 06:17:45;;;;;;;5.25;4.80;;;11.90;99.90;;;;;;4994454;28;20026;-59
2023/09/07 06:20:11;;;;;;;5.93;5.32;;;12.00;99.90;;;;;;4994962;28;20030;-59
2023/09/07 06:22:36;;;;;;;7.93;7.22;;;12.10;99.90;;;;;;4993162;28;20390;-59
2023/09/07 06:25:02;;;;;;;5.35;4.95;;;12.20;99.90;;;;;;4993830;28;20023;-58
2023/09/07 06:27:28;;;;;;;7.95;7.07;;;12.30;99.90;;;;;;4989744;28;20015;-59
2023/09/07 06:29:53;;;;;;;8.05;7.18;;;12.40;99.90;;;;;;4991492;28;20027;-59
2023/09/07 06:32:19;;;;;;;7.43;6.82;;;12.50;99.90;;;;;;4988890;28;20390;-60
2023/09/07 06:34:45;;;;;;;10.32;6.85;;;12.60;99.90;;;;;;4986993;28;20018;-60
2023/09/07 06:37:11;;;;;;;6.55;5.95;;;12.70;99.90;;;;;;4989203;28;20085;-59
2023/09/07 06:39:37;;;;;;;11.98;7.93;;;12.80;99.90;;;;;;4994216;28;20770;-59
2023/09/07 06:42:03;;;;;;;8.20;7.50;;;12.90;99.90;;;;;;4989163;28;20022;-59
2023/09/07 06:44:29;;;;;;;8.27;7.45;;;13.10;99.90;;;;;;4993544;28;20676;-59
2023/09/07 06:46:55;;;;;;;8.48;7.75;;;13.20;99.90;;;;;;4987859;28;20399;-60
2023/09/07 06:49:22;;;;;;;7.10;6.50;;;13.30;99.90;;;;;;4991878;28;20114;-59
2023/09/07 06:51:47;;;;;;;6.85;6.25;;;13.40;99.90;;;;;;4991821;28;20425;-60
2023/09/07 06:54:13;;;;;;;7.70;5.85;;;13.60;99.90;;;;;;4983867;28;20034;-59
2023/09/07 06:56:39;;;;;;;5.88;5.32;;;13.60;99.90;;;;;;4979868;28;20149;-60
2023/09/07 06:59:05;;;;;;;3.90;2.92;;;13.80;99.90;;;;;;4991238;28;20047;-60
2023/09/07 07:01:30;;;;;;;4.38;3.30;;;13.90;99.90;;;;;;4988962;28;20039;-60
2023/09/07 07:03:56;;;;;;;4.55;3.55;;;14.00;99.90;;;;;;4996055;28;20034;-58
2023/09/07 07:06:23;;;;;;;3.45;3.05;;;14.10;99.90;;;;;;4987510;28;20025;-59
2023/09/07 07:08:48;;;;;;;5.38;3.30;;;14.20;99.90;;;;;;4998420;28;20026;-61
2023/09/07 07:11:14;;;;;;;4.85;4.28;;;14.30;99.90;;;;;;4990704;28;20027;-60
2023/09/07 07:13:39;;;;;;;9.25;3.72;;;14.40;99.90;;;;;;4996113;28;20030;-59
2023/09/07 07:16:05;;;;;;;6.03;4.63;;;14.50;99.90;;;;;;4997107;28;20844;-60
2023/09/07 07:18:31;;;;;;;5.75;4.43;;;14.70;99.90;;;;;;4994691;28;20092;-60
2023/09/07 07:20:57;;;;;;;4.50;3.90;;;14.80;99.90;;;;;;4991394;28;20010;-59
2023/09/07 07:23:22;;;;;;;4.97;4.05;;;14.90;99.90;;;;;;4989383;28;20390;-59
2023/09/07 07:25:48;;;;;;;3.88;3.45;;;15.00;99.90;;;;;;4991068;28;20026;-58
2023/09/07 07:28:14;;;;;;;4.35;3.25;;;15.20;99.90;;;;;;4991319;28;20034;-60
2023/09/07 07:30:42;;;;;;;5.60;3.45;;;15.30;99.90;;;;;;4992310;28;20019;-59
2023/09/07 07:33:09;;;;;;;3.55;2.67;;;15.50;99.90;;;;;;4987567;28;20026;-60
2023/09/07 07:35:35;;;;;;;4.25;3.22;;;15.60;99.90;;;;;;4989536;28;20033;-59
2023/09/07 07:38:03;;;;;;;4.45;3.33;;;15.70;99.90;;;;;;4991108;28;20397;-59
2023/09/07 07:40:29;;;;;;;4.18;3.65;;;15.80;99.90;;;;;;4992941;28;20493;-59
2023/09/07 07:42:55;;;;;;;3.83;3.30;;;15.90;99.90;;;;;;4992423;28;20034;-59
2023/09/07 07:45:21;;;;;;;8.13;3.53;;;16.00;99.90;;;;;;4994184;28;20046;-59
2023/09/07 07:47:49;;;;;;;4.57;4.07;;;16.10;99.90;;;;;;4988815;28;20495;-59
2023/09/07 07:50:15;;;;;;;3.25;2.63;;;16.20;99.90;;;;;;4990451;28;20034;-58
2023/09/07 07:52:40;;;;;;;3.00;2.17;;;16.30;99.90;;;;;;4992306;28;20135;-58
2023/09/07 07:55:06;;;;;;;3.22;2.78;;;16.50;99.90;;;;;;4988560;28;20113;-60
2023/09/07 07:57:32;;;;;;;5.53;4.32;;;16.60;99.90;;;;;;4986576;28;20098;-60
2023/09/07 07:59:58;;;;;;;5.82;5.22;;;16.80;99.90;;;;;;4983901;28;20039;-58
2023/09/07 08:02:24;;;;;;;7.03;5.20;;;17.00;99.90;;;;;;4985628;28;20080;-59
2023/09/07 08:04:49;;;;;;;5.35;4.38;;;17.20;99.90;;;;;;4982553;28;20065;-60
2023/09/07 08:07:15;;;;;;;10.32;4.55;;;17.30;99.90;;;;;;4983057;28;20401;-60
2023/09/07 08:09:40;;;;;;;5.55;4.68;;;17.50;99.90;;;;;;4987220;28;20118;-60
2023/09/07 08:12:06;;;;;;;5.13;4.72;;;17.60;99.90;;;;;;4982775;28;20022;-60
2023/09/07 08:14:32;;;;;;;5.55;4.80;;;17.80;99.90;;;;;;4986848;28;20034;-60
2023/09/07 08:16:58;;;;;;;3.85;3.45;;;17.90;99.90;;;;;;4985290;28;20374;-60
2023/09/07 08:19:24;;;;;;;4.13;3.83;;;18.10;99.90;;;;;;4987083;28;20029;-60
2023/09/07 08:21:50;;;;;;;3.40;3.08;;;18.30;99.90;;;;;;4992135;28;20391;-60
2023/09/07 08:24:16;;;;;;;2.78;2.55;;;18.50;99.90;;;;;;4988511;28;20479;-60
2023/09/07 08:26:42;;;;;;;3.00;2.33;;;18.70;99.90;;;;;;4983936;28;20121;-59
2023/09/07 08:29:08;;;;;;;3.33;2.47;;;18.90;99.90;;;;;;4990042;28;20037;-60
2023/09/07 08:31:40;;;;;;;3.25;2.95;;;19.10;99.90;;;;;;4985290;28;20069;-60
2023/09/07 08:34:11;;;;;;;2.33;2.13;;;19.30;99.90;;;;;;4982582;28;20030;-60
2023/09/07 08:36:37;;;;;;;2.20;1.57;;;19.50;99.90;;;;;;4977140;28;20378;-60
2023/09/07 08:39:07;;;;;;;3.30;1.40;;;19.70;99.90;;;;;;4980794;28;20745;-60
2023/09/07 08:41:41;;;;;;;2.90;1.83;;;19.80;99.90;;;;;;4980110;28;20034;-61
2023/09/07 08:44:09;;;;;;;2.28;1.83;;;19.90;99.90;;;;;;4980193;28;20035;-61
2023/09/07 08:46:36;;;;;;;2.38;1.30;;;20.00;99.90;;;;;;4990221;28;20181;-60
2023/09/07 08:49:03;;;;;;;6.18;1.80;;;20.20;99.90;;;;;;4994741;28;20775;-60
2023/09/07 08:51:31;;;;;;;3.17;2.05;;;20.50;99.90;;;;;;4989838;28;20099;-60
2023/09/07 08:54:00;;;;;;;3.15;2.85;;;20.60;99.90;;;;;;4982565;28;20022;-60
2023/09/07 08:56:26;;;;;;;3.10;2.15;;;20.70;99.90;;;;;;4989244;28;20108;-59
2023/09/07 08:58:52;;;;;;;2.35;1.92;;;20.80;99.90;;;;;;4986967;28;20062;-60
2023/09/07 09:01:18;;;;;;;2.67;2.30;;;20.90;99.90;;;;;;4985725;28;20069;-60
2023/09/07 09:03:45;;;;;;;2.47;2.13;;;21.10;99.90;;;;;;4984440;28;20045;-60
2023/09/07 09:06:12;;;;;;;2.20;1.90;;;21.20;99.90;;;;;;4986252;28;20053;-60
2023/09/07 09:08:43;;;;;;;2.60;1.75;;;21.50;99.90;;;;;;4993196;28;20528;-60
2023/09/07 09:11:10;;;;;;;6.47;2.10;;;21.70;99.90;;;;;;4978987;28;20029;-61
2023/09/07 09:13:36;;;;;;;2.60;1.80;;;22.20;99.90;;;;;;4986944;28;20034;-61
2023/09/07 09:16:02;;;;;;;1.77;1.65;;;22.70;99.90;;;;;;4989499;28;20023;-61
2023/09/07 09:18:29;;;;;;;2.92;1.60;;;23.10;99.90;;;;;;4987760;28;20019;-60
2023/09/07 09:20:55;;;;;;;1.30;1.02;;;23.50;99.90;;;;;;4984599;28;20641;-60
2023/09/07 09:23:21;;;;;;;1.17;1.00;;;23.90;99.90;;;;;;4986788;28;20046;-61
2023/09/07 09:25:50;;;;;;;1.23;1.17;;;24.20;99.90;;;;;;4987128;28;20053;-59
2023/09/07 09:28:16;;;;;;;1.23;1.13;;;24.30;99.90;;;;;;4990109;28;20041;-60
2023/09/07 09:30:44;;;;;;;10.68;0.88;;;24.50;99.90;;;;;;4989567;28;20026;-61
2023/09/07 09:33:10;;;;;;;1.40;0.98;;;24.70;99.90;;;;;;4994641;28;20109;-60
2023/09/07 09:35:38;;;;;;;1.13;0.77;;;24.80;99.90;;;;;;4993416;28;20026;-61
2023/09/07 09:38:04;;;;;;;3.53;0.50;;;24.90;99.90;;;;;;4989955;28;20681;-61
2023/09/07 09:40:36;;;;;;;0.50;0.50;;;24.90;99.90;;;;;;4988799;28;20058;-60
2023/09/07 09:43:06;;;;;;;0.60;0.60;;;25.00;99.90;;;;;;4994530;28;20058;-61
2023/09/07 09:45:33;;;;;;;7.25;1.00;;;25.10;99.90;;;;;;4999880;28;20031;-58
2023/09/07 09:48:01;;;;;;;0.80;0.80;;;25.20;99.90;;;;;;4996575;28;20041;-60
2023/09/07 09:50:28;;;;;;;0.85;0.85;;;25.20;99.90;;;;;;4994977;28;20125;-60
2023/09/07 09:52:53;;;;;;;0.75;0.75;;;25.30;99.90;;;;;;4989442;28;20089;-58
2023/09/07 09:55:19;;;;;;;0.77;0.77;;;25.30;99.90;;;;;;4989573;28;20034;-58
2023/09/07 09:57:45;;;;;;;0.70;0.70;;;25.40;99.90;;;;;;4983067;28;20032;-58
2023/09/07 10:03:04;;;;;;;0.95;0.95;;;25.50;99.90;;;;;;4984050;28;20105;-59
2023/09/07 10:05:31;;;;;;;0.60;0.60;;;25.50;99.90;;;;;;4997040;28;20509;-58
2023/09/07 10:08:05;;;;;;;0.73;0.73;;;25.50;99.90;;;;;;5001697;28;20122;-59
2023/09/07 10:10:38;;;;;;;1.38;1.10;;;25.50;99.90;;;;;;4999959;28;20084;-60
2023/09/07 10:13:05;;;;;;;4.22;1.80;;;25.70;99.90;;;;;;4998903;28;20109;-57
2023/09/07 10:15:32;;;;;;;1.95;0.90;;;25.60;99.90;;;;;;4988756;28;20042;-60
2023/09/07 10:18:04;;;;;;;1.83;0.90;;;25.60;99.90;;;;;;4982208;28;20462;-61
2023/09/07 10:20:47;;;;;;;1.15;0.90;;;25.70;99.90;;;;;;4987408;28;20046;-59
2023/09/07 10:23:13;;;;;;;1.35;0.88;;;25.70;99.90;;;;;;4989751;28;20046;-60
2023/09/07 10:25:39;;;;;;;1.50;1.30;;;25.80;99.90;;;;;;4995935;28;20032;-58
2023/09/07 10:28:05;;;;;;;0.50;0.50;;;25.80;99.90;;;;;;4991111;28;20398;-60
2023/09/07 10:30:32;;;;;;;0.80;0.35;;;25.80;96.80;;;;;;4989162;28;20026;-59
2023/09/07 10:32:58;;;;;;;0.77;0.70;;;25.90;99.90;;;;;;4982944;28;20097;-60
2023/09/07 10:35:25;;;;;;;2.33;1.70;;;26.00;96.80;;;;;;4988712;28;20065;-59
2023/09/07 10:37:51;;;;;;;7.10;1.77;;;26.10;99.80;;;;;;4993002;28;20038;-60
2023/09/07 10:40:24;;;;;;;1.80;1.40;;;26.10;96.60;;;;;;4991450;28;20085;-60
2023/09/07 10:43:01;;;;;;;1.50;1.20;;;26.20;96.00;;;;;;4994188;28;20026;-59
2023/09/07 10:45:27;;;;;;;1.58;1.40;;;26.40;90.50;;;;;;4991510;28;20482;-59
2023/09/07 10:47:52;;;;;;;1.67;1.58;;;26.50;85.40;;;;;;4993938;28;20030;-59
2023/09/07 10:50:18;;;;;;;1.55;1.25;;;26.60;90.00;;;;;;4995909;28;20038;-60
2023/09/07 10:52:44;;;;;;;8.90;3.05;;;26.80;79.40;;;;;;4996442;28;20031;-58
2023/09/07 10:55:11;;;;;;;1.83;1.30;;;26.90;80.00;;;;;;4989192;28;20022;-60
2023/09/07 10:57:47;;;;;;;2.97;1.52;;;27.00;77.00;;;;;;4987880;28;20030;-60
2023/09/07 11:00:14;;;;;;;4.32;1.75;;;27.00;73.80;;;;;;4992580;28;20025;-59
2023/09/07 11:02:43;;;;;;;2.92;1.50;;;27.00;74.70;;;;;;4983017;28;20438;-60
2023/09/07 11:05:10;;;;;;;5.70;1.60;;;27.00;74.50;;;;;;4980108;28;20138;-60
2023/09/07 11:07:37;;;;;;;2.47;1.75;;;27.00;72.30;;;;;;4981573;28;20735;-59
2023/09/07 11:10:06;;;;;;;1.85;1.38;;;27.00;72.60;;;;;;4985711;28;20022;-58
2023/09/07 11:12:40;;;;;;;4.47;2.00;;;27.00;68.80;;;;;;4980609;28;20023;-59
2023/09/07 11:15:09;;;;;;;2.78;1.80;;;27.20;69.10;;;;;;4985317;28;20020;-58
2023/09/07 11:17:38;;;;;;;4.53;1.40;;;27.30;70.20;;;;;;4987522;28;20066;-60
2023/09/07 11:20:06;;;;;;;2.83;1.70;;;27.40;70.30;;;;;;4992801;28;20391;-59
2023/09/07 11:22:32;;;;;;;2.25;1.63;;;27.50;69.30;;;;;;4991781;28;20054;-59
2023/09/07 11:25:00;;;;;;;1.60;1.50;;;27.50;69.30;;;;;;4991580;28;20128;-59
2023/09/07 11:27:29;;;;;;;1.45;0.90;;;27.50;67.50;;;;;;4989694;28;20461;-60
2023/09/07 11:29:56;;;;;;;2.90;2.30;;;27.50;66.90;;;;;;4995784;28;20014;-59
2023/09/07 11:32:23;;;;;;;2.72;2.00;;;27.50;66.30;;;;;;4993694;28;20039;-60
2023/09/07 11:34:51;;;;;;;4.10;2.50;;;27.70;68.20;;;;;;4995645;28;20065;-60
2023/09/07 11:37:24;;;;;;;4.60;2.53;;;27.70;67.20;;;;;;4985089;28;20041;-59
2023/09/07 11:39:50;;;;;;;5.43;1.98;;;27.80;65.30;;;;;;4990519;28;20058;-60
2023/09/07 11:42:16;;;;;;;3.08;1.85;;;27.80;64.90;;;;;;4990168;28;20072;-60
2023/09/07 11:44:41;;;;;;;5.57;1.92;;;27.90;66.20;;;;;;4987166;28;20058;-61
2023/09/07 11:47:07;;;;;;;5.05;1.80;;;27.90;64.70;;;;;;4988338;28;20027;-60
2023/09/07 11:49:33;;;;;;;3.22;2.38;;;27.90;66.00;;;;;;4992600;28;20026;-60
2023/09/07 11:51:59;;;;;;;6.60;1.85;;;28.00;65.30;;;;;;4997613;28;20031;-59
2023/09/07 11:54:24;;;;;;;2.03;1.83;;;28.10;66.10;;;;;;4990461;28;20041;-60
2023/09/07 11:56:50;;;;;;;5.70;1.90;;;28.10;63.00;;;;;;4990852;28;20038;-60
2023/09/07 11:59:17;;;;;;;6.30;1.70;;;28.10;64.40;;;;;;4988455;28;20137;-61
2023/09/07 12:01:43;;;;;;;2.40;1.70;;;28.20;65.00;;;;;;4989249;28;20040;-60
2023/09/07 12:04:09;;;;;;;2.58;1.65;;;28.30;64.00;;;;;;4988054;28;20035;-61
2023/09/07 12:06:35;;;;;;;1.90;1.65;;;28.50;62.00;;;;;;4992433;28;20478;-59
2023/09/07 12:09:02;;;;;;;2.35;1.63;;;28.60;62.20;;;;;;4994975;28;20030;-60
2023/09/07 12:11:28;;;;;;;1.63;1.50;;;28.70;62.90;;;;;;4994317;28;20145;-60
2023/09/07 12:13:54;;;;;;;5.03;1.83;;;28.80;61.20;;;;;;4995333;28;20101;-60
2023/09/07 12:16:20;;;;;;;1.45;1.35;;;28.80;60.10;;;;;;4994464;28;20026;-61
2023/09/07 12:18:45;;;;;;;1.75;1.50;;;28.90;61.00;;;;;;4989158;28;20030;-60
2023/09/07 12:21:11;;;;;;;2.75;1.42;;;28.90;60.10;;;;;;4981084;28;20019;-60
2023/09/07 12:23:36;;;;;;;1.77;1.45;;;29.00;58.60;;;;;;4986760;28;20965;-59
2023/09/07 12:26:04;;;;;;;2.75;1.65;;;29.00;59.40;;;;;;4981762;28;20045;-60
2023/09/07 12:28:31;;;;;;;3.83;1.77;;;29.00;58.90;;;;;;4990548;28;20026;-60
2023/09/07 12:30:58;;;;;;;1.70;1.60;;;29.10;57.90;;;;;;4991447;28;20046;-60
2023/09/07 12:33:24;;;;;;;1.92;1.30;;;29.10;56.60;;;;;;4990985;28;20018;-60
2023/09/07 12:35:49;;;;;;;3.75;1.80;;;29.00;57.80;;;;;;4985162;28;20030;-60
2023/09/07 12:38:17;;;;;;;1.98;1.58;;;29.00;56.80;;;;;;4985942;28;20038;-60
2023/09/07 12:40:44;;;;;;;6.97;1.50;;;28.90;56.00;;;;;;4992135;28;20481;-60
2023/09/07 12:43:10;;;;;;;1.50;1.33;;;28.90;56.10;;;;;;4993968;28;20058;-60
2023/09/07 12:45:36;;;;;;;1.60;1.50;;;28.90;56.50;;;;;;4991996;28;20081;-61